Time;durP1;ratioP1;P1;durP2;ratioP2;P2;SDS_P1;SDS_P2;PMS_P1;PMS_P2;Temp;Humidity;BMP_temperature;BMP_pressure;BME280_temperature;BME280_humidity;BME280_pressure;Samples;Min_cycle;Max_cycle;Signal;HPM_P1;HPM_P2
2022/06/11 00:01:04;;;;;;;16.20;7.43;;;;;;;;;;5058316;28;20119;-63
2022/06/11 00:03:30;;;;;;;13.43;7.57;;;;;;;;;;5061002;28;20045;-63
2022/06/11 00:05:56;;;;;;;13.93;7.03;;;;;;;;;;5059613;28;20040;-63
2022/06/11 00:08:22;;;;;;;13.03;5.97;;;;;;;;;;5059406;28;20048;-63
2022/06/11 00:10:48;;;;;;;8.87;6.00;;;;;;;;;;5057697;28;20521;-63
2022/06/11 00:13:15;;;;;;;17.53;5.63;;;;;;;;;;5060113;28;20055;-63
2022/06/11 00:15:43;;;;;;;13.47;5.87;;;;;;;;;;5054756;28;20041;-63
2022/06/11 00:18:09;;;;;;;17.07;6.70;;;;;;;;;;5058473;28;20142;-63
2022/06/11 00:20:35;;;;;;;9.90;5.80;;;;;;;;;;5059140;28;20044;-63
2022/06/11 00:23:01;;;;;;;8.90;5.40;;;;;;;;;;5055212;28;20127;-63
2022/06/11 00:25:29;;;;;;;8.90;5.47;;;;;;;;;;5059755;28;20048;-63
2022/06/11 00:27:55;;;;;;;10.50;5.60;;;;;;;;;;5055700;28;20080;-63
2022/06/11 00:30:21;;;;;;;11.13;5.50;;;;;;;;;;5059104;28;20064;-63
2022/06/11 00:32:48;;;;;;;11.13;6.70;;;;;;;;;;5056598;28;20045;-63
2022/06/11 00:35:15;;;;;;;12.73;7.70;;;;;;;;;;5058417;28;20095;-63
2022/06/11 00:37:42;;;;;;;12.33;7.20;;;;;;;;;;5057246;28;20087;-63
2022/06/11 00:40:09;;;;;;;16.10;7.73;;;;;;;;;;5058547;28;20036;-63
2022/06/11 00:42:35;;;;;;;13.50;7.87;;;;;;;;;;5056225;28;20594;-63
2022/06/11 00:45:20;;;;;;;11.37;7.37;;;;;;;;;;5056161;28;20048;-63
2022/06/11 00:47:48;;;;;;;16.63;7.37;;;;;;;;;;5056272;28;20041;-63
2022/06/11 00:50:20;;;;;;;11.70;7.03;;;;;;;;;;5063561;28;20148;-63
2022/06/11 00:52:46;;;;;;;15.83;7.37;;;;;;;;;;5058555;28;20089;-64
2022/06/11 00:55:18;;;;;;;12.00;7.20;;;;;;;;;;5069194;28;20390;-63
2022/06/11 00:57:50;;;;;;;11.00;6.28;;;;;;;;;;5067495;28;20041;-63
2022/06/11 01:00:19;;;;;;;15.20;7.00;;;;;;;;;;5061270;28;20462;-63
2022/06/11 01:02:46;;;;;;;12.70;6.87;;;;;;;;;;5052139;28;20036;-63
2022/06/11 01:05:14;;;;;;;11.10;8.17;;;;;;;;;;5068174;28;20040;-63
2022/06/11 01:07:57;;;;;;;16.90;7.63;;;;;;;;;;5055590;28;20072;-63
2022/06/11 01:10:55;;;;;;;9.73;6.97;;;;;;;;;;5049314;28;20454;-63
2022/06/11 01:13:43;;;;;;;14.87;9.17;;;;;;;;;;5025801;28;20505;-63
2022/06/11 01:16:16;;;;;;;14.63;10.70;;;;;;;;;;5048481;28;20044;-63
2022/06/11 01:19:21;;;;;;;16.53;11.10;;;;;;;;;;5049428;28;20041;-63
2022/06/11 01:22:05;;;;;;;16.50;10.33;;;;;;;;;;5006735;28;20069;-63
2022/06/11 01:24:34;;;;;;;13.87;10.50;;;;;;;;;;5009515;28;20140;-63
2022/06/11 01:27:18;;;;;;;20.10;11.73;;;;;;;;;;5032756;28;20648;-63
2022/06/11 01:29:49;;;;;;;21.43;11.97;;;;;;;;;;5049252;28;20407;-63
2022/06/11 01:32:24;;;;;;;20.93;12.10;;;;;;;;;;5049103;28;20561;-63
2022/06/11 01:35:09;;;;;;;17.27;13.00;;;;;;;;;;5049167;28;20045;-63
2022/06/11 01:37:43;;;;;;;22.77;14.63;;;;;;;;;;5049065;28;20131;-63
2022/06/11 01:40:20;;;;;;;23.97;14.50;;;;;;;;;;5049050;28;20132;-63
2022/06/11 01:42:50;;;;;;;22.33;13.37;;;;;;;;;;5052550;28;20056;-63
2022/06/11 01:45:25;;;;;;;21.27;14.73;;;;;;;;;;5051002;28;20052;-63
2022/06/11 01:47:51;;;;;;;26.20;14.97;;;;;;;;;;5049114;28;20057;-63
2022/06/11 01:50:22;;;;;;;23.07;14.90;;;;;;;;;;5047642;28;20454;-63
2022/06/11 01:52:51;;;;;;;17.83;13.37;;;;;;;;;;5048818;28;20049;-63
2022/06/11 01:55:36;;;;;;;24.70;13.67;;;;;;;;;;5049085;28;20037;-63
2022/06/11 01:58:23;;;;;;;23.90;13.33;;;;;;;;;;5048504;28;20542;-63
2022/06/11 02:00:58;;;;;;;20.97;13.83;;;;;;;;;;5068650;28;20044;-63
2022/06/11 02:03:28;;;;;;;28.60;14.30;;;;;;;;;;5068663;28;20142;-63
2022/06/11 02:05:57;;;;;;;19.17;13.73;;;;;;;;;;5067982;28;20123;-63
2022/06/11 02:08:33;;;;;;;28.13;14.77;;;;;;;;;;5068735;28;20048;-63
2022/06/11 02:11:16;;;;;;;24.40;15.27;;;;;;;;;;5053579;28;20060;-63
2022/06/11 02:13:48;;;;;;;25.40;14.35;;;;;;;;;;5066326;28;20048;-63
2022/06/11 02:16:24;;;;;;;28.03;14.77;;;;;;;;;;5068610;28;20048;-63
2022/06/11 02:18:52;;;;;;;25.87;16.40;;;;;;;;;;5068773;28;20045;-63
2022/06/11 02:21:20;;;;;;;33.03;17.57;;;;;;;;;;5068819;28;20739;-63
2022/06/11 02:23:50;;;;;;;30.77;20.20;;;;;;;;;;5050853;28;20407;-63
2022/06/11 02:26:18;;;;;;;30.07;19.60;;;;;;;;;;5048270;28;20118;-63
2022/06/11 02:28:45;;;;;;;34.83;22.70;;;;;;;;;;5067586;28;20076;-63
2022/06/11 02:31:13;;;;;;;42.00;24.63;;;;;;;;;;5068142;28;20048;-63
2022/06/11 02:33:40;;;;;;;36.00;23.03;;;;;;;;;;5068713;28;20139;-63
2022/06/11 02:36:12;;;;;;;42.93;24.53;;;;;;;;;;5068436;28;20044;-63
2022/06/11 02:38:38;;;;;;;37.03;24.37;;;;;;;;;;5068225;28;20782;-63
2022/06/11 02:41:16;;;;;;;42.03;27.10;;;;;;;;;;5067442;28;20548;-63
2022/06/11 02:43:42;;;;;;;45.60;28.00;;;;;;;;;;5049208;28;20087;-62
2022/06/11 02:48:53;;;;;;;41.57;27.77;;;;;;;;;;5068463;28;20045;-63
2022/06/11 02:51:23;;;;;;;50.87;28.63;;;;;;;;;;5068261;28;20850;-63
2022/06/11 02:53:49;;;;;;;47.77;27.97;;;;;;;;;;5068408;28;20041;-63
2022/06/11 02:56:16;;;;;;;37.10;25.23;;;;;;;;;;5063562;28;20041;-63
2022/06/11 02:58:42;;;;;;;38.00;25.63;;;;;;;;;;5048208;28;20051;-63
2022/06/11 03:01:09;;;;;;;40.63;24.67;;;;;;;;;;5047595;28;20518;-63
2022/06/11 03:03:35;;;;;;;42.93;23.90;;;;;;;;;;5048374;28;20107;-63
2022/06/11 03:06:01;;;;;;;37.73;24.53;;;;;;;;;;5047787;28;20127;-63
2022/06/11 03:08:27;;;;;;;40.97;25.73;;;;;;;;;;5048012;28;20098;-63
2022/06/11 03:10:57;;;;;;;40.93;24.83;;;;;;;;;;5047963;28;20073;-63
2022/06/11 03:13:26;;;;;;;32.63;20.73;;;;;;;;;;5047707;28;20099;-63
2022/06/11 03:15:53;;;;;;;37.60;21.00;;;;;;;;;;5048076;28;20043;-63
2022/06/11 03:18:19;;;;;;;26.70;17.23;;;;;;;;;;5049542;28;20081;-63
2022/06/11 03:20:45;;;;;;;28.50;14.93;;;;;;;;;;5051605;28;20049;-63
2022/06/11 03:23:11;;;;;;;22.33;14.27;;;;;;;;;;5049976;28;20051;-63
2022/06/11 03:25:37;;;;;;;18.87;12.47;;;;;;;;;;5060997;28;20049;-63
2022/06/11 03:28:11;;;;;;;17.70;11.53;;;;;;;;;;5070848;28;20506;-63
2022/06/11 03:30:37;;;;;;;19.17;10.00;;;;;;;;;;5070881;28;20396;-63
2022/06/11 03:33:03;;;;;;;16.20;9.43;;;;;;;;;;5069933;28;20087;-63
2022/06/11 03:35:29;;;;;;;19.33;9.33;;;;;;;;;;5070936;28;20040;-63
2022/06/11 03:37:56;;;;;;;17.63;8.27;;;;;;;;;;5071223;28;20052;-63
2022/06/11 03:40:22;;;;;;;18.93;8.03;;;;;;;;;;5057703;28;20473;-63
2022/06/11 03:42:48;;;;;;;13.53;6.90;;;;;;;;;;5050432;28;20148;-63
2022/06/11 03:45:15;;;;;;;15.87;6.13;;;;;;;;;;5057806;28;20043;-63
2022/06/11 03:47:41;;;;;;;12.00;5.63;;;;;;;;;;5059149;28;20498;-63
2022/06/11 03:50:10;;;;;;;20.10;5.50;;;;;;;;;;5051907;28;20161;-63
2022/06/11 03:52:37;;;;;;;15.20;5.07;;;;;;;;;;5047160;28;20099;-63
2022/06/11 03:55:03;;;;;;;18.90;4.97;;;;;;;;;;5053350;28;20124;-63
2022/06/11 03:57:29;;;;;;;16.90;4.80;;;;;;;;;;5068406;28;20489;-62
2022/06/11 03:59:57;;;;;;;15.23;4.83;;;;;;;;;;5068669;28;20055;-62
2022/06/11 04:02:23;;;;;;;20.07;4.80;;;;;;;;;;5068201;28;20060;-63
2022/06/11 04:04:49;;;;;;;17.17;4.50;;;;;;;;;;5067738;28;20477;-65
2022/06/11 04:07:15;;;;;;;16.13;4.30;;;;;;;;;;5069849;28;20391;-63
2022/06/11 04:09:42;;;;;;;15.77;4.47;;;;;;;;;;5069367;28;20045;-64
2022/06/11 04:12:11;;;;;;;15.60;5.03;;;;;;;;;;5069924;28;20053;-63
2022/06/11 04:14:38;;;;;;;13.77;4.23;;;;;;;;;;5069831;28;20102;-63
2022/06/11 04:17:08;;;;;;;16.67;4.33;;;;;;;;;;5069238;28;20127;-63
2022/06/11 04:19:36;;;;;;;17.60;4.93;;;;;;;;;;5069607;28;20036;-63
2022/06/11 04:22:03;;;;;;;18.20;4.50;;;;;;;;;;5064255;28;20131;-63
2022/06/11 04:24:30;;;;;;;20.17;4.60;;;;;;;;;;5049329;28;20040;-63
2022/06/11 04:26:57;;;;;;;11.97;5.07;;;;;;;;;;5048962;28;20045;-63
2022/06/11 04:29:25;;;;;;;13.00;5.23;;;;;;;;;;5047903;28;20052;-63
2022/06/11 04:31:52;;;;;;;17.70;4.17;;;;;;;;;;5048655;28;20063;-63
2022/06/11 04:34:18;;;;;;;14.63;5.73;;;;;;;;;;5049063;28;20128;-63
2022/06/11 04:36:46;;;;;;;15.77;5.53;;;;;;;;;;5048864;28;20056;-63
2022/06/11 04:39:13;;;;;;;12.27;5.10;;;;;;;;;;5047672;28;20048;-63
2022/06/11 04:41:39;;;;;;;13.53;5.30;;;;;;;;;;5048785;28;20057;-63
2022/06/11 04:44:05;;;;;;;16.00;6.83;;;;;;;;;;5048527;28;20102;-63
2022/06/11 04:46:31;;;;;;;15.07;6.30;;;;;;;;;;5047383;28;20132;-63
2022/06/11 04:48:57;;;;;;;15.17;5.70;;;;;;;;;;5047738;28;20073;-63
2022/06/11 04:51:24;;;;;;;16.97;6.57;;;;;;;;;;5048482;28;20067;-63
2022/06/11 04:53:50;;;;;;;11.53;5.67;;;;;;;;;;5051940;28;20040;-63
2022/06/11 04:56:18;;;;;;;12.03;5.43;;;;;;;;;;5068586;28;20045;-63
2022/06/11 04:58:44;;;;;;;17.50;6.50;;;;;;;;;;5068437;28;20083;-63
2022/06/11 05:01:10;;;;;;;11.33;5.30;;;;;;;;;;5068444;28;20036;-63
2022/06/11 05:03:37;;;;;;;11.30;5.47;;;;;;;;;;5067105;28;20053;-63
2022/06/11 05:06:04;;;;;;;17.20;5.37;;;;;;;;;;5064106;28;20156;-63
2022/06/11 05:08:30;;;;;;;12.53;5.40;;;;;;;;;;5048629;28;20045;-63
2022/06/11 05:10:56;;;;;;;14.30;5.10;;;;;;;;;;5048245;28;20041;-63
2022/06/11 05:13:22;;;;;;;16.83;5.00;;;;;;;;;;5047402;28;20105;-63
2022/06/11 05:15:51;;;;;;;17.77;5.47;;;;;;;;;;5054058;28;20395;-63
2022/06/11 05:18:17;;;;;;;16.80;5.63;;;;;;;;;;5065149;28;20083;-63
2022/06/11 05:20:44;;;;;;;16.13;5.47;;;;;;;;;;5055982;28;20045;-63
2022/06/11 05:23:10;;;;;;;17.03;6.73;;;;;;;;;;5059566;28;20646;-63
2022/06/11 05:25:38;;;;;;;13.47;5.77;;;;;;;;;;5058540;28;20044;-63
2022/06/11 05:28:05;;;;;;;12.93;4.87;;;;;;;;;;5054787;28;20098;-63
2022/06/11 05:30:32;;;;;;;16.93;5.40;;;;;;;;;;5059782;28;20048;-63
2022/06/11 05:33:00;;;;;;;17.40;4.70;;;;;;;;;;5056655;28;20036;-63
2022/06/11 05:35:28;;;;;;;12.87;4.73;;;;;;;;;;5057771;28;20111;-63
2022/06/11 05:37:55;;;;;;;10.40;4.37;;;;;;;;;;5058540;28;20044;-63
2022/06/11 05:40:23;;;;;;;13.63;4.63;;;;;;;;;;5058510;28;20043;-63
2022/06/11 05:42:49;;;;;;;16.77;5.87;;;;;;;;;;5057237;28;20140;-63
2022/06/11 05:45:17;;;;;;;16.90;4.97;;;;;;;;;;5060654;28;20051;-63
2022/06/11 05:47:44;;;;;;;18.97;5.20;;;;;;;;;;5061089;28;20048;-63
2022/06/11 05:50:11;;;;;;;20.97;5.33;;;;;;;;;;5056060;28;20049;-63
2022/06/11 05:52:39;;;;;;;13.57;4.40;;;;;;;;;;5048671;28;20212;-63
2022/06/11 05:55:06;;;;;;;14.67;3.93;;;;;;;;;;5048111;28;20049;-63
2022/06/11 05:57:32;;;;;;;16.87;5.00;;;;;;;;;;5048383;28;20705;-63
2022/06/11 06:00:05;;;;;;;19.17;4.60;;;;;;;;;;5048338;28;20120;-63
2022/06/11 06:02:31;;;;;;;14.80;4.20;;;;;;;;;;5048142;28;20049;-63
2022/06/11 06:04:57;;;;;;;17.17;4.53;;;;;;;;;;5053845;28;20407;-63
2022/06/11 06:07:24;;;;;;;23.23;5.63;;;;;;;;;;5056553;28;20033;-63
2022/06/11 06:09:50;;;;;;;16.27;5.20;;;;;;;;;;5057559;28;20047;-63
2022/06/11 06:12:16;;;;;;;10.83;4.53;;;;;;;;;;5057337;28;20064;-63
2022/06/11 06:14:42;;;;;;;14.20;4.10;;;;;;;;;;5039387;28;20127;-63
2022/06/11 06:17:09;;;;;;;13.10;3.70;;;;;;;;;;5057377;28;20518;-63
2022/06/11 06:19:35;;;;;;;19.57;4.60;;;;;;;;;;5054390;28;20441;-63
2022/06/11 06:22:04;;;;;;;20.57;5.13;;;;;;;;;;5057464;28;20044;-63
2022/06/11 06:24:31;;;;;;;18.70;5.50;;;;;;;;;;5057076;28;20071;-64
2022/06/11 06:26:57;;;;;;;17.63;4.40;;;;;;;;;;5054561;28;20033;-63
2022/06/11 06:29:23;;;;;;;17.90;4.83;;;;;;;;;;5057057;28;20040;-64
2022/06/11 06:31:50;;;;;;;18.30;4.83;;;;;;;;;;5057834;28;20061;-63
2022/06/11 06:34:16;;;;;;;24.23;4.83;;;;;;;;;;5058431;28;20112;-63
2022/06/11 06:36:43;;;;;;;21.97;6.00;;;;;;;;;;5057032;28;20475;-63
2022/06/11 06:39:09;;;;;;;25.30;5.83;;;;;;;;;;5056968;28;20080;-63
2022/06/11 06:41:35;;;;;;;23.70;4.87;;;;;;;;;;5054633;28;20078;-63
2022/06/11 06:44:02;;;;;;;23.23;5.10;;;;;;;;;;5058076;28;20090;-63
2022/06/11 06:46:28;;;;;;;18.33;5.57;;;;;;;;;;5058398;28;20044;-63
2022/06/11 06:48:54;;;;;;;31.03;6.10;;;;;;;;;;5059542;28;20032;-63
2022/06/11 06:51:21;;;;;;;22.23;4.87;;;;;;;;;;5057334;28;20130;-63
2022/06/11 06:53:47;;;;;;;23.73;5.03;;;;;;;;;;5060851;28;20067;-63
2022/06/11 06:56:13;;;;;;;28.53;6.47;;;;;;;;;;5059899;28;20037;-63
2022/06/11 06:58:40;;;;;;;20.83;4.93;;;;;;;;;;5060969;28;20045;-63
2022/06/11 07:01:06;;;;;;;22.30;5.03;;;;;;;;;;5060566;28;20561;-63
2022/06/11 07:03:32;;;;;;;26.57;5.23;;;;;;;;;;5061508;28;20048;-63
2022/06/11 07:06:00;;;;;;;23.57;5.37;;;;;;;;;;5059827;28;20049;-63
2022/06/11 07:08:27;;;;;;;22.37;4.87;;;;;;;;;;5059182;28;20040;-63
2022/06/11 07:10:53;;;;;;;24.97;5.43;;;;;;;;;;5060724;28;20044;-63
2022/06/11 07:13:20;;;;;;;22.33;6.53;;;;;;;;;;5059052;28;20090;-63
2022/06/11 07:15:48;;;;;;;23.87;5.43;;;;;;;;;;5059780;28;20044;-63
2022/06/11 07:18:16;;;;;;;26.73;4.77;;;;;;;;;;5058615;28;20452;-63
2022/06/11 07:20:46;;;;;;;24.00;5.73;;;;;;;;;;5060927;28;20604;-63
2022/06/11 07:23:35;;;;;;;25.40;5.10;;;;;;;;;;5059645;28;20049;-63
2022/06/11 07:26:02;;;;;;;22.40;4.53;;;;;;;;;;5057581;28;20698;-63
2022/06/11 07:28:32;;;;;;;28.37;5.17;;;;;;;;;;5061340;28;20055;-63
2022/06/11 07:30:59;;;;;;;22.30;5.53;;;;;;;;;;5058750;28;20053;-63
2022/06/11 07:33:26;;;;;;;25.07;5.13;;;;;;;;;;5066355;28;20040;-63
2022/06/11 07:35:52;;;;;;;16.40;4.33;;;;;;;;;;5060793;28;20515;-63
2022/06/11 07:38:19;;;;;;;18.60;4.90;;;;;;;;;;5062076;28;20123;-63
2022/06/11 07:40:45;;;;;;;24.53;4.60;;;;;;;;;;5058940;28;20061;-63
2022/06/11 07:43:11;;;;;;;22.53;4.97;;;;;;;;;;5050867;28;20051;-63
2022/06/11 07:45:38;;;;;;;18.73;4.23;;;;;;;;;;5051266;28;20119;-62
2022/06/11 07:48:04;;;;;;;19.00;4.30;;;;;;;;;;5050759;28;20102;-62
2022/06/11 07:50:50;;;;;;;18.73;5.17;;;;;;;;;;5050976;28;20041;-62
2022/06/11 07:53:17;;;;;;;19.93;4.83;;;;;;;;;;5050902;28;20558;-63
2022/06/11 07:55:44;;;;;;;25.60;5.40;;;;;;;;;;5050404;28;20131;-63
2022/06/11 07:58:11;;;;;;;16.73;4.40;;;;;;;;;;5070849;28;20048;-62
2022/06/11 08:00:39;;;;;;;18.60;4.03;;;;;;;;;;5070682;28;20135;-62
2022/06/11 08:03:05;;;;;;;22.23;5.43;;;;;;;;;;5053203;28;20047;-62
2022/06/11 08:05:31;;;;;;;19.33;4.07;;;;;;;;;;5048108;28;20048;-62
2022/06/11 08:07:57;;;;;;;22.17;4.80;;;;;;;;;;5051171;28;20134;-63
2022/06/11 08:10:24;;;;;;;20.40;5.00;;;;;;;;;;5058049;28;20143;-62
2022/06/11 08:12:50;;;;;;;24.80;5.13;;;;;;;;;;5070192;28;20491;-63
2022/06/11 08:15:17;;;;;;;19.10;4.97;;;;;;;;;;5051971;28;20041;-63
2022/06/11 08:17:43;;;;;;;18.13;4.67;;;;;;;;;;5070442;28;20471;-63
2022/06/11 08:20:12;;;;;;;18.80;5.30;;;;;;;;;;5070399;28;20048;-63
2022/06/11 08:22:38;;;;;;;16.57;4.10;;;;;;;;;;5070034;28;20525;-63
2022/06/11 08:25:04;;;;;;;20.43;5.57;;;;;;;;;;5064455;28;20068;-63
2022/06/11 08:27:30;;;;;;;17.40;4.47;;;;;;;;;;5048835;28;20045;-63
2022/06/11 08:29:56;;;;;;;24.37;4.97;;;;;;;;;;5050180;28;20049;-63
2022/06/11 08:32:22;;;;;;;21.10;4.47;;;;;;;;;;5049405;28;20205;-63
2022/06/11 08:34:48;;;;;;;18.63;4.63;;;;;;;;;;5050162;28;20135;-63
2022/06/11 08:37:15;;;;;;;23.90;5.03;;;;;;;;;;5050020;28;20045;-63
2022/06/11 08:39:41;;;;;;;19.50;4.83;;;;;;;;;;5060089;28;20055;-73
2022/06/11 08:42:25;;;;;;;24.37;5.70;;;;;;;;;;5052731;28;20577;-63
2022/06/11 08:44:51;;;;;;;;;;;;;;;;;;5069293;28;20052;-62
2022/06/11 08:47:17;;;;;;;21.93;5.27;;;;;;;;;;5066352;28;19927;-62
2022/06/11 08:49:46;;;;;;;19.93;4.97;;;;;;;;;;5057431;28;20119;-62
2022/06/11 08:52:17;;;;;;;16.20;4.20;;;;;;;;;;5051261;28;20519;-62
2022/06/11 08:54:44;;;;;;;15.77;4.07;;;;;;;;;;5069270;28;20080;-62
2022/06/11 08:57:22;;;;;;;15.50;4.90;;;;;;;;;;5068706;28;20048;-62
2022/06/11 09:00:10;;;;;;;16.93;5.17;;;;;;;;;;5054030;28;20041;-62
2022/06/11 09:02:45;;;;;;;19.47;5.47;;;;;;;;;;5058033;28;20040;-62
2022/06/11 09:05:27;;;;;;;16.47;3.87;;;;;;;;;;5068684;28;20044;-62
2022/06/11 09:08:12;;;;;;;17.73;4.60;;;;;;;;;;5067675;28;20048;-62
2022/06/11 09:10:40;;;;;;;13.47;4.87;;;;;;;;;;5069765;28;20083;-62
2022/06/11 09:13:22;;;;;;;18.77;4.43;;;;;;;;;;5057576;28;20352;-62
2022/06/11 09:15:48;;;;;;;20.93;4.00;;;;;;;;;;5062280;28;20070;-62
2022/06/11 09:18:21;;;;;;;15.67;4.30;;;;;;;;;;5047913;28;20049;-62
2022/06/11 09:20:52;;;;;;;19.17;4.47;;;;;;;;;;5048511;28;20518;-62
2022/06/11 09:23:18;;;;;;;21.50;4.67;;;;;;;;;;5048721;28;20124;-62
2022/06/11 09:25:47;;;;;;;15.45;4.00;;;;;;;;;;5048911;28;20481;-62
2022/06/11 09:28:13;;;;;;;15.63;4.75;;;;;;;;;;5049442;28;20048;-62
2022/06/11 09:30:40;;;;;;;12.85;4.15;;;;;;;;;;5049827;28;20144;-62
2022/06/11 09:33:06;;;;;;;14.75;3.42;;;;;;;;;;5049094;28;20103;-62
2022/06/11 09:35:59;;;;;;;15.90;3.22;;;;;;;;;;5049140;28;20053;-62
2022/06/11 09:38:43;;;;;;;17.25;4.72;;;;;;;;;;5047988;28;20491;-62
2022/06/11 09:41:29;;;;;;;13.15;2.80;;;;;;;;;;5052521;28;20098;-62
2022/06/11 09:44:04;;;;;;;12.80;3.28;;;;;;;;;;5064141;28;20052;-62
2022/06/11 09:46:53;;;;;;;14.65;3.97;;;;;;;;;;5064847;28;20149;-62
2022/06/11 09:49:31;;;;;;;12.80;4.03;;;;;;;;;;5064565;28;20057;-62
2022/06/11 09:51:57;;;;;;;14.10;4.00;;;;;;;;;;5061979;28;20481;-62
2022/06/11 09:54:32;;;;;;;15.40;3.70;;;;;;;;;;5063855;28;20072;-62
2022/06/11 09:57:17;;;;;;;15.88;5.18;;;;;;;;;;5054594;28;20795;-62
2022/06/11 10:00:04;;;;;;;9.88;3.05;;;;;;;;;;5055138;28;20490;-62
2022/06/11 10:05:25;;;;;;;11.98;4.45;;;;;;;;;;5056680;28;20491;-62
2022/06/11 10:07:54;;;;;;;16.55;5.43;;;;;;;;;;5048056;28;20048;-63
2022/06/11 10:10:23;;;;;;;11.20;3.33;;;;;;;;;;5067335;28;20471;-62
2022/06/11 10:12:54;;;;;;;15.63;3.45;;;;;;;;;;5068438;28;20036;-62
2022/06/11 10:15:20;;;;;;;10.30;3.67;;;;;;;;;;5064618;28;20569;-62
2022/06/11 10:17:54;;;;;;;12.82;3.35;;;;;;;;;;5049082;28;20045;-62
2022/06/11 10:20:23;;;;;;;9.63;2.63;;;;;;;;;;5061110;28;20050;-62
2022/06/11 10:23:00;;;;;;;7.82;2.75;;;;;;;;;;5051913;28;20494;-62
2022/06/11 10:25:30;;;;;;;9.63;3.50;;;;;;;;;;5061076;28;20534;-62
2022/06/11 10:28:00;;;;;;;11.05;3.03;;;;;;;;;;5055322;28;20518;-62
2022/06/11 10:30:33;;;;;;;12.88;2.63;;;;;;;;;;5064001;28;20097;-62
2022/06/11 10:33:00;;;;;;;11.93;3.25;;;;;;;;;;5057254;28;20403;-63
2022/06/11 10:35:30;;;;;;;13.25;3.70;;;;;;;;;;5064260;28;20033;-62
2022/06/11 10:37:58;;;;;;;12.30;4.15;;;;;;;;;;5064380;28;20495;-62
2022/06/11 10:40:33;;;;;;;8.32;2.85;;;;;;;;;;5063158;28;20088;-62
2022/06/11 10:43:17;;;;;;;12.77;3.55;;;;;;;;;;5057658;28;20051;-62
2022/06/11 10:45:44;;;;;;;13.98;3.20;;;;;;;;;;5069320;28;20044;-62
2022/06/11 10:48:15;;;;;;;11.50;3.15;;;;;;;;;;5058738;28;20032;-62
2022/06/11 10:50:41;;;;;;;11.45;3.38;;;;;;;;;;5059715;28;20110;-62
2022/06/11 10:53:12;;;;;;;16.48;3.25;;;;;;;;;;5072674;28;20090;-62
2022/06/11 10:55:45;;;;;;;11.52;3.67;;;;;;;;;;5060770;28;20827;-63
2022/06/11 10:58:11;;;;;;;10.55;3.03;;;;;;;;;;5063529;28;20085;-62
2022/06/11 11:00:41;;;;;;;7.97;3.20;;;;;;;;;;5052049;28;20045;-62
2022/06/11 11:03:15;;;;;;;12.80;3.33;;;;;;;;;;5052778;28;20090;-62
2022/06/11 11:05:46;;;;;;;12.60;3.08;;;;;;;;;;5051431;28;20114;-62
2022/06/11 11:08:13;;;;;;;11.02;3.60;;;;;;;;;;5051570;28;20059;-62
2022/06/11 11:10:47;;;;;;;10.00;3.10;;;;;;;;;;5059630;28;20041;-62
2022/06/11 11:13:33;;;;;;;13.10;3.38;;;;;;;;;;5056322;28;20097;-62
2022/06/11 11:16:08;;;;;;;9.93;2.95;;;;;;;;;;5055371;28;20057;-62
2022/06/11 11:18:53;;;;;;;13.80;3.72;;;;;;;;;;5063310;28;20356;-62
2022/06/11 11:21:23;;;;;;;11.60;3.65;;;;;;;;;;5064847;28;20083;-63
2022/06/11 11:23:50;;;;;;;9.75;2.85;;;;;;;;;;5057892;28;20119;-63
2022/06/11 11:26:36;;;;;;;14.00;4.03;;;;;;;;;;5060638;28;20044;-62
2022/06/11 11:29:38;;;;;;;9.77;2.53;;;;;;;;;;5054674;28;20065;-63
2022/06/11 11:32:07;;;;;;;12.75;3.60;;;;;;;;;;5030100;28;20041;-62
2022/06/11 11:34:34;;;;;;;10.77;3.28;;;;;;;;;;5056570;28;20136;-62
2022/06/11 11:37:16;;;;;;;11.32;3.38;;;;;;;;;;5059102;28;20047;-63
2022/06/11 11:39:49;;;;;;;12.02;3.58;;;;;;;;;;5066347;28;20665;-62
2022/06/11 11:42:19;;;;;;;15.52;4.47;;;;;;;;;;5065624;28;20045;-62
2022/06/11 11:44:51;;;;;;;11.63;3.70;;;;;;;;;;5052163;28;20114;-62
2022/06/11 11:47:17;;;;;;;;;;;;;;;;;;5063931;28;20505;-62
2022/06/11 11:49:47;;;;;;;13.48;3.58;;;;;;;;;;5068925;28;19934;-62
2022/06/11 11:52:15;;;;;;;14.32;3.55;;;;;;;;;;5069188;28;20048;-62
2022/06/11 11:54:52;;;;;;;12.50;3.55;;;;;;;;;;5070950;28;20040;-63
2022/06/11 11:57:19;;;;;;;12.77;4.15;;;;;;;;;;5049580;28;20394;-62
2022/06/11 11:59:51;;;;;;;13.43;4.35;;;;;;;;;;5062247;28;21015;-62
2022/06/11 12:02:20;;;;;;;10.60;3.50;;;;;;;;;;5070521;28;20384;-62
2022/06/11 12:04:51;;;;;;;11.20;2.92;;;;;;;;;;5070643;28;20402;-63
2022/06/11 12:07:19;;;;;;;11.20;3.38;;;;;;;;;;5052156;28;20037;-63
2022/06/11 12:09:53;;;;;;;10.43;3.15;;;;;;;;;;5050739;28;20147;-63
2022/06/11 12:12:26;;;;;;;17.45;4.07;;;;;;;;;;5050359;28;20988;-63
2022/06/11 12:14:56;;;;;;;12.02;3.05;;;;;;;;;;5051995;28;20056;-63
2022/06/11 12:17:26;;;;;;;13.60;3.35;;;;;;;;;;5050328;28;20458;-63
2022/06/11 12:19:55;;;;;;;10.20;2.78;;;;;;;;;;5063805;28;20140;-63
2022/06/11 12:22:28;;;;;;;13.32;4.45;;;;;;;;;;5067428;28;20044;-63
2022/06/11 12:24:55;;;;;;;12.88;3.83;;;;;;;;;;5070187;28;20494;-63
2022/06/11 12:27:31;;;;;;;12.98;4.03;;;;;;;;;;5069047;28;20050;-63
2022/06/11 12:30:03;;;;;;;11.85;3.17;;;;;;;;;;5070538;28;20040;-63
2022/06/11 12:32:30;;;;;;;11.05;3.10;;;;;;;;;;5070228;28;20072;-62
2022/06/11 12:35:00;;;;;;;13.50;4.32;;;;;;;;;;5068694;28;20044;-63
2022/06/11 12:37:47;;;;;;;11.90;3.22;;;;;;;;;;5048589;28;20053;-63
2022/06/11 12:40:32;;;;;;;12.25;3.22;;;;;;;;;;5049785;28;20041;-63
2022/06/11 12:42:58;;;;;;;13.18;3.45;;;;;;;;;;5050345;28;20057;-63
2022/06/11 12:45:41;;;;;;;12.48;3.60;;;;;;;;;;5049561;28;20037;-62
2022/06/11 12:48:20;;;;;;;13.32;3.45;;;;;;;;;;5052481;28;20044;-63
2022/06/11 12:51:04;;;;;;;10.93;3.63;;;;;;;;;;5049536;28;20076;-63
2022/06/11 12:53:36;;;;;;;15.10;4.38;;;;;;;;;;5049339;28;20045;-61
2022/06/11 12:56:04;;;;;;;10.90;3.25;;;;;;;;;;5060657;28;20053;-61
2022/06/11 12:58:45;;;;;;;14.75;4.05;;;;;;;;;;5058092;28;20043;-61
2022/06/11 13:01:18;;;;;;;11.38;3.53;;;;;;;;;;5055170;28;20522;-61
2022/06/11 13:04:03;;;;;;;11.60;4.07;;;;;;;;;;5057492;28;20450;-61
2022/06/11 13:06:32;;;;;;;12.43;3.58;;;;;;;;;;5057711;28;20076;-61
2022/06/11 13:09:05;;;;;;;11.00;3.75;;;;;;;;;;5062904;28;20053;-61
2022/06/11 13:11:48;;;;;;;12.38;3.75;;;;;;;;;;5069370;28;20395;-64
2022/06/11 13:14:23;;;;;;;12.60;3.42;;;;;;;;;;5063950;28;20411;-61
2022/06/11 13:16:55;;;;;;;14.02;4.03;;;;;;;;;;5051537;28;20499;-61
2022/06/11 13:19:21;;;;;;;;;;;;;;;;;;5065491;28;20044;-61
2022/06/11 13:22:00;;;;;;;9.02;3.20;;;;;;;;;;5053549;28;19997;-61
2022/06/11 13:24:45;;;;;;;10.93;4.07;;;;;;;;;;5057553;28;20051;-61
2022/06/11 13:27:14;;;;;;;10.40;3.25;;;;;;;;;;5069036;28;20106;-61
2022/06/11 13:29:55;;;;;;;11.68;3.20;;;;;;;;;;5066890;28;20044;-61
2022/06/11 13:32:21;;;;;;;11.23;3.58;;;;;;;;;;5050679;28;21030;-61
2022/06/11 13:34:54;;;;;;;11.60;3.75;;;;;;;;;;5051718;28;20080;-60
2022/06/11 13:37:38;;;;;;;11.65;3.67;;;;;;;;;;5060191;28;20044;-61
2022/06/11 13:40:23;;;;;;;9.75;3.20;;;;;;;;;;5060451;28;20048;-61
2022/06/11 13:42:57;;;;;;;17.48;3.83;;;;;;;;;;5067579;28;20061;-61
2022/06/11 13:45:34;;;;;;;11.63;3.70;;;;;;;;;;5060425;28;20051;-61
2022/06/11 13:48:03;;;;;;;13.50;4.47;;;;;;;;;;5055454;28;20127;-61
2022/06/11 13:50:34;;;;;;;10.98;3.63;;;;;;;;;;5057792;28;20044;-61
2022/06/11 13:55:55;;;;;;;14.27;3.85;;;;;;;;;;5056048;28;20040;-61
2022/06/11 13:58:21;;;;;;;12.15;3.70;;;;;;;;;;5067781;28;20045;-61
2022/06/11 14:01:10;;;;;;;12.63;4.20;;;;;;;;;;5068211;28;20051;-61
2022/06/11 14:03:44;;;;;;;12.10;3.70;;;;;;;;;;5048625;28;20052;-61
2022/06/11 14:06:12;;;;;;;12.82;3.88;;;;;;;;;;5063270;28;20048;-61
2022/06/11 14:08:43;;;;;;;13.77;3.88;;;;;;;;;;5056055;28;21796;-61
2022/06/11 14:11:17;;;;;;;11.57;3.28;;;;;;;;;;5047677;28;20049;-61
2022/06/11 14:13:53;;;;;;;9.63;3.10;;;;;;;;;;5047899;28;20127;-61
2022/06/11 14:16:46;;;;;;;10.82;3.50;;;;;;;;;;5048793;28;20049;-61
2022/06/11 14:19:12;;;;;;;13.52;3.55;;;;;;;;;;5047716;28;20049;-61
2022/06/11 14:21:38;;;;;;;11.30;3.85;;;;;;;;;;5053961;28;20064;-61
2022/06/11 14:24:08;;;;;;;12.65;3.83;;;;;;;;;;5064547;28;20041;-61
2022/06/11 14:26:43;;;;;;;13.20;3.92;;;;;;;;;;5056098;28;20263;-61
2022/06/11 14:29:17;;;;;;;15.25;3.45;;;;;;;;;;5054783;28;20472;-61
2022/06/11 14:31:57;;;;;;;12.68;3.90;;;;;;;;;;5052989;28;20100;-61
2022/06/11 14:34:34;;;;;;;13.13;3.38;;;;;;;;;;5053250;28;20123;-62
2022/06/11 14:37:06;;;;;;;11.10;3.78;;;;;;;;;;5054343;28;20041;-62
2022/06/11 14:39:33;;;;;;;11.13;3.65;;;;;;;;;;5054054;28;20040;-62
2022/06/11 14:42:11;;;;;;;10.45;3.15;;;;;;;;;;5060376;28;20897;-62
2022/06/11 14:44:38;;;;;;;14.10;3.53;;;;;;;;;;5061130;28;20059;-62
2022/06/11 14:47:22;;;;;;;11.05;3.60;;;;;;;;;;5054736;28;20482;-62
2022/06/11 14:49:50;;;;;;;11.30;2.92;;;;;;;;;;5056618;28;20127;-62
2022/06/11 14:52:24;;;;;;;13.15;4.20;;;;;;;;;;5059040;28;20396;-62
2022/06/11 14:55:13;;;;;;;12.93;4.03;;;;;;;;;;5056934;28;20182;-62
2022/06/11 14:58:05;;;;;;;13.93;3.60;;;;;;;;;;5049493;28;20562;-62